sensor_id;sensor_type;location;lat;lon;timestamp;temperature;humidity
1888;DHT22;944;51.574;6.980;2023-05-07T00:01:47;14.70;99.90
1888;DHT22;944;51.574;6.980;2023-05-07T00:04:15;14.60;99.90
1888;DHT22;944;51.574;6.980;2023-05-07T00:06:45;14.70;99.90
1888;DHT22;944;51.574;6.980;2023-05-07T00:09:14;14.70;99.90
1888;DHT22;944;51.574;6.980;2023-05-07T00:11:42;14.70;99.90
1888;DHT22;944;51.574;6.980;2023-05-07T00:14:09;14.70;99.90
1888;DHT22;944;51.574;6.980;2023-05-07T00:16:46;14.60;99.90
1888;DHT22;944;51.574;6.980;2023-05-07T01:06:17;14.30;99.90
1888;DHT22;944;51.574;6.980;2023-05-07T01:08:49;14.40;99.90
1888;DHT22;944;51.574;6.980;2023-05-07T01:11:34;14.50;99.90
1888;DHT22;944;51.574;6.980;2023-05-07T01:14:18;14.50;99.90
1888;DHT22;944;51.574;6.980;2023-05-07T01:16:53;14.40;99.90
1888;DHT22;944;51.574;6.980;2023-05-07T01:19:29;14.50;99.90
1888;DHT22;944;51.574;6.980;2023-05-07T01:22:07;14.40;99.90
1888;DHT22;944;51.574;6.980;2023-05-07T01:24:44;14.40;99.90
1888;DHT22;944;51.574;6.980;2023-05-07T01:27:29;14.50;99.90
1888;DHT22;944;51.574;6.980;2023-05-07T01:30:04;14.40;99.90
1888;DHT22;944;51.574;6.980;2023-05-07T01:32:42;14.30;99.90
1888;DHT22;944;51.574;6.980;2023-05-07T01:35:24;14.30;99.90
1888;DHT22;944;51.574;6.980;2023-05-07T01:38:25;14.30;99.90
1888;DHT22;944;51.574;6.980;2023-05-07T01:41:21;14.30;99.90
1888;DHT22;944;51.574;6.980;2023-05-07T01:47:37;14.30;99.90
1888;DHT22;944;51.574;6.980;2023-05-07T01:50:42;14.40;99.90
1888;DHT22;944;51.574;6.980;2023-05-07T01:53:57;14.40;99.90
1888;DHT22;944;51.574;6.980;2023-05-07T02:01:04;14.20;99.90
1888;DHT22;944;51.574;6.980;2023-05-07T02:03:42;14.30;99.90
1888;DHT22;944;51.574;6.980;2023-05-07T02:06:18;14.40;99.90
1888;DHT22;944;51.574;6.980;2023-05-07T02:09:13;14.30;99.90
1888;DHT22;944;51.574;6.980;2023-05-07T02:12:11;14.20;99.90
1888;DHT22;944;51.574;6.980;2023-05-07T02:15:30;14.30;99.90
1888;DHT22;944;51.574;6.980;2023-05-07T02:21:46;14.30;99.90
1888;DHT22;944;51.574;6.980;2023-05-07T02:24:30;14.30;99.90
1888;DHT22;944;51.574;6.980;2023-05-07T02:27:30;14.30;99.90
1888;DHT22;944;51.574;6.980;2023-05-07T02:30:48;14.30;99.90
1888;DHT22;944;51.574;6.980;2023-05-07T02:41:18;14.30;99.90
1888;DHT22;944;51.574;6.980;2023-05-07T02:47:27;14.20;99.90
1888;DHT22;944;51.574;6.980;2023-05-07T11:04:14;21.60;1.00
1888;DHT22;944;51.574;6.980;2023-05-07T11:21:38;21.60;99.90
1888;DHT22;944;51.574;6.980;2023-05-07T11:24:08;21.60;1.00
1888;DHT22;944;51.574;6.980;2023-05-07T11:26:53;21.70;1.00
1888;DHT22;944;51.574;6.980;2023-05-07T11:29:21;21.60;99.90
1888;DHT22;944;51.574;6.980;2023-05-07T11:31:54;21.80;1.00
1888;DHT22;944;51.574;6.980;2023-05-07T11:34:48;22.00;99.90
1888;DHT22;944;51.574;6.980;2023-05-07T11:37:27;22.10;99.90
1888;DHT22;944;51.574;6.980;2023-05-07T11:40:14;22.00;99.90
1888;DHT22;944;51.574;6.980;2023-05-07T11:55:06;22.00;95.60
1888;DHT22;944;51.574;6.980;2023-05-07T14:20:34;19.90;99.90
1888;DHT22;944;51.574;6.980;2023-05-07T14:23:06;20.00;63.00
1888;DHT22;944;51.574;6.980;2023-05-07T14:25:33;20.00;35.90
1888;DHT22;944;51.574;6.980;2023-05-07T14:28:06;20.00;26.90
1888;DHT22;944;51.574;6.980;2023-05-07T14:30:55;20.10;67.00
1888;DHT22;944;51.574;6.980;2023-05-07T14:33:32;20.10;33.10
1888;DHT22;944;51.574;6.980;2023-05-07T14:57:09;19.40;1.00
1888;DHT22;944;51.574;6.980;2023-05-07T15:00:09;19.20;1.00
1888;DHT22;944;51.574;6.980;2023-05-07T15:03:10;19.20;22.30
1888;DHT22;944;51.574;6.980;2023-05-07T15:05:41;19.00;99.90
1888;DHT22;944;51.574;6.980;2023-05-07T15:11:58;18.70;1.00
1888;DHT22;944;51.574;6.980;2023-05-07T15:17:58;18.30;99.90
1888;DHT22;944;51.574;6.980;2023-05-07T15:20:31;18.50;83.30
1888;DHT22;944;51.574;6.980;2023-05-07T15:22:59;18.50;99.90
1888;DHT22;944;51.574;6.980;2023-05-07T15:25:26;18.60;44.20
1888;DHT22;944;51.574;6.980;2023-05-07T15:27:53;18.80;99.90
1888;DHT22;944;51.574;6.980;2023-05-07T15:30:22;18.80;99.90
1888;DHT22;944;51.574;6.980;2023-05-07T15:32:52;19.20;71.50
1888;DHT22;944;51.574;6.980;2023-05-07T15:35:47;19.30;99.90
1888;DHT22;944;51.574;6.980;2023-05-07T15:38:31;19.40;99.90
1888;DHT22;944;51.574;6.980;2023-05-07T15:41:10;19.70;27.20
1888;DHT22;944;51.574;6.980;2023-05-07T15:44:12;19.70;58.60
1888;DHT22;944;51.574;6.980;2023-05-07T15:46:46;19.60;30.20
1888;DHT22;944;51.574;6.980;2023-05-07T15:49:19;19.60;1.00
1888;DHT22;944;51.574;6.980;2023-05-07T15:51:59;19.70;1.00
1888;DHT22;944;51.574;6.980;2023-05-07T15:54:31;19.70;1.00
1888;DHT22;944;51.574;6.980;2023-05-07T15:57:02;19.80;82.50
1888;DHT22;944;51.574;6.980;2023-05-07T15:59:48;19.80;99.90
1888;DHT22;944;51.574;6.980;2023-05-07T16:02:30;19.80;99.90
1888;DHT22;944;51.574;6.980;2023-05-07T16:05:01;20.00;98.50
1888;DHT22;944;51.574;6.980;2023-05-07T16:07:35;20.00;99.90
1888;DHT22;944;51.574;6.980;2023-05-07T16:10:03;20.10;99.90
1888;DHT22;944;51.574;6.980;2023-05-07T16:23:04;20.10;99.70
1888;DHT22;944;51.574;6.980;2023-05-07T16:25:31;20.10;99.90
1888;DHT22;944;51.574;6.980;2023-05-07T16:28:05;19.90;99.90
1888;DHT22;944;51.574;6.980;2023-05-07T16:30:44;19.90;99.90
1888;DHT22;944;51.574;6.980;2023-05-07T17:03:08;19.40;99.90
1888;DHT22;944;51.574;6.980;2023-05-07T17:05:35;19.40;99.90
1888;DHT22;944;51.574;6.980;2023-05-07T17:08:07;19.50;99.90
1888;DHT22;944;51.574;6.980;2023-05-07T17:10:38;19.50;99.90
1888;DHT22;944;51.574;6.980;2023-05-07T17:13:14;19.40;99.90
1888;DHT22;944;51.574;6.980;2023-05-07T17:15:43;19.40;99.90
1888;DHT22;944;51.574;6.980;2023-05-07T17:18:29;19.40;99.90
1888;DHT22;944;51.574;6.980;2023-05-07T17:21:00;19.40;99.90
1888;DHT22;944;51.574;6.980;2023-05-07T17:23:36;19.40;99.90
1888;DHT22;944;51.574;6.980;2023-05-07T17:26:12;19.20;99.90
1888;DHT22;944;51.574;6.980;2023-05-07T17:28:41;19.40;99.90
1888;DHT22;944;51.574;6.980;2023-05-07T17:31:08;19.30;99.90
1888;DHT22;944;51.574;6.980;2023-05-07T17:33:37;19.50;99.90
1888;DHT22;944;51.574;6.980;2023-05-07T17:36:07;19.20;99.90
1888;DHT22;944;51.574;6.980;2023-05-07T17:38:43;19.10;99.90
1888;DHT22;944;51.574;6.980;2023-05-07T17:41:16;19.30;99.90
1888;DHT22;944;51.574;6.980;2023-05-07T17:43:49;19.10;99.90
1888;DHT22;944;51.574;6.980;2023-05-07T17:46:16;19.20;99.90
1888;DHT22;944;51.574;6.980;2023-05-07T17:48:53;19.10;99.90
1888;DHT22;944;51.574;6.980;2023-05-07T17:51:22;19.10;99.90
1888;DHT22;944;51.574;6.980;2023-05-07T17:53:54;19.10;99.90
1888;DHT22;944;51.574;6.980;2023-05-07T17:56:21;19.10;99.90
1888;DHT22;944;51.574;6.980;2023-05-07T17:58:49;19.00;99.90
1888;DHT22;944;51.574;6.980;2023-05-07T18:01:32;19.00;99.90
1888;DHT22;944;51.574;6.980;2023-05-07T18:04:37;19.00;99.90
1888;DHT22;944;51.574;6.980;2023-05-07T18:07:20;19.00;99.90
1888;DHT22;944;51.574;6.980;2023-05-07T18:10:15;18.80;99.90
1888;DHT22;944;51.574;6.980;2023-05-07T18:13:40;18.90;99.90
1888;DHT22;944;51.574;6.980;2023-05-07T18:19:04;18.90;99.90
1888;DHT22;944;51.574;6.980;2023-05-07T18:21:35;18.80;99.90
1888;DHT22;944;51.574;6.980;2023-05-07T18:24:19;18.60;99.90
1888;DHT22;944;51.574;6.980;2023-05-07T18:27:05;18.70;99.90
1888;DHT22;944;51.574;6.980;2023-05-07T18:29:34;18.50;99.90
1888;DHT22;944;51.574;6.980;2023-05-07T18:32:16;18.30;99.90
1888;DHT22;944;51.574;6.980;2023-05-07T18:34:45;18.30;99.90
1888;DHT22;944;51.574;6.980;2023-05-07T18:37:32;18.30;99.90
1888;DHT22;944;51.574;6.980;2023-05-07T18:40:39;18.20;99.90
1888;DHT22;944;51.574;6.980;2023-05-07T18:43:20;18.20;99.90
1888;DHT22;944;51.574;6.980;2023-05-07T18:45:54;18.20;99.90
1888;DHT22;944;51.574;6.980;2023-05-07T18:48:43;18.20;99.90
1888;DHT22;944;51.574;6.980;2023-05-07T18:58:34;18.20;99.90
1888;DHT22;944;51.574;6.980;2023-05-07T19:01:01;18.10;99.90
1888;DHT22;944;51.574;6.980;2023-05-07T19:03:32;18.10;99.90
1888;DHT22;944;51.574;6.980;2023-05-07T19:06:00;18.10;99.90
1888;DHT22;944;51.574;6.980;2023-05-07T19:12:46;18.00;99.90
1888;DHT22;944;51.574;6.980;2023-05-07T19:16:27;17.90;99.90
1888;DHT22;944;51.574;6.980;2023-05-07T19:25:26;17.90;99.90
1888;DHT22;944;51.574;6.980;2023-05-07T19:26:54;17.60;99.90
1888;DHT22;944;51.574;6.980;2023-05-07T19:32:34;17.50;99.90
1888;DHT22;944;51.574;6.980;2023-05-07T19:35:03;17.40;99.90
1888;DHT22;944;51.574;6.980;2023-05-07T19:37:33;17.40;99.90
1888;DHT22;944;51.574;6.980;2023-05-07T19:40:20;17.50;99.90
1888;DHT22;944;51.574;6.980;2023-05-07T19:43:02;17.30;99.90
1888;DHT22;944;51.574;6.980;2023-05-07T19:45:42;17.30;99.90
1888;DHT22;944;51.574;6.980;2023-05-07T19:48:20;17.30;99.90
1888;DHT22;944;51.574;6.980;2023-05-07T19:51:02;17.20;99.90
1888;DHT22;944;51.574;6.980;2023-05-07T19:53:33;17.20;99.90
1888;DHT22;944;51.574;6.980;2023-05-07T19:56:06;17.20;99.90
1888;DHT22;944;51.574;6.980;2023-05-07T20:02:31;17.10;99.90
1888;DHT22;944;51.574;6.980;2023-05-07T20:08:23;17.20;99.90
1888;DHT22;944;51.574;6.980;2023-05-07T20:11:17;17.10;99.90
1888;DHT22;944;51.574;6.980;2023-05-07T20:13:53;17.10;99.90
1888;DHT22;944;51.574;6.980;2023-05-07T20:16:28;17.10;99.90
1888;DHT22;944;51.574;6.980;2023-05-07T20:23:00;17.10;99.90
1888;DHT22;944;51.574;6.980;2023-05-07T20:25:38;17.00;99.90
1888;DHT22;944;51.574;6.980;2023-05-07T20:28:31;17.00;99.90
1888;DHT22;944;51.574;6.980;2023-05-07T20:31:18;17.00;99.90
1888;DHT22;944;51.574;6.980;2023-05-07T20:33:56;16.90;99.90
1888;DHT22;944;51.574;6.980;2023-05-07T20:40:21;16.90;99.90
1888;DHT22;944;51.574;6.980;2023-05-07T20:43:17;16.90;99.90
1888;DHT22;944;51.574;6.980;2023-05-07T20:45:44;16.80;99.90
1888;DHT22;944;51.574;6.980;2023-05-07T20:48:12;16.90;99.90
1888;DHT22;944;51.574;6.980;2023-05-07T20:50:43;16.90;99.90
1888;DHT22;944;51.574;6.980;2023-05-07T20:53:10;16.80;99.90
1888;DHT22;944;51.574;6.980;2023-05-07T20:55:39;16.80;99.90
1888;DHT22;944;51.574;6.980;2023-05-07T20:58:06;16.80;99.90
1888;DHT22;944;51.574;6.980;2023-05-07T21:00:33;16.80;99.90
1888;DHT22;944;51.574;6.980;2023-05-07T21:03:00;16.80;99.90
1888;DHT22;944;51.574;6.980;2023-05-07T21:05:36;16.80;99.90
1888;DHT22;944;51.574;6.980;2023-05-07T21:20:25;16.60;99.90
1888;DHT22;944;51.574;6.980;2023-05-07T21:23:12;16.50;99.90
1888;DHT22;944;51.574;6.980;2023-05-07T21:33:50;16.30;99.90
1888;DHT22;944;51.574;6.980;2023-05-07T21:48:07;16.30;99.90
